createdAt,value
2018-12-25T00:00:58.718Z,99.99
2018-12-25T00:01:58.591Z,99.99
2018-12-25T00:02:58.442Z,99.99
2018-12-25T00:03:58.313Z,99.99
2018-12-25T00:04:58.271Z,99.99
2018-12-25T00:05:58.030Z,99.99
2018-12-25T00:06:57.901Z,99.99
2018-12-25T00:07:57.754Z,99.99
2018-12-25T00:08:57.622Z,99.99
2018-12-25T00:09:57.481Z,99.99
2018-12-25T00:10:57.347Z,99.99
2018-12-25T00:11:57.206Z,99.99
2018-12-25T00:12:57.084Z,99.99
2018-12-25T00:13:56.931Z,99.99
2018-12-25T00:14:56.804Z,99.99
2018-12-25T00:15:56.658Z,99.99
2018-12-25T00:16:56.518Z,99.99
2018-12-25T00:17:56.383Z,99.99
2018-12-25T00:18:56.250Z,99.99
2018-12-25T00:19:56.107Z,99.99
2018-12-25T00:20:55.970Z,99.99
2018-12-25T00:21:55.833Z,99.99
2018-12-25T00:22:55.698Z,99.99
2018-12-25T00:23:55.558Z,99.99
2018-12-25T00:24:55.424Z,99.99
2018-12-25T00:25:55.290Z,99.99
2018-12-25T00:26:55.160Z,99.99
2018-12-25T00:27:55.010Z,99.99
2018-12-25T00:28:54.875Z,99.99
2018-12-25T00:29:55.615Z,99.99
2018-12-25T00:30:54.620Z,99.99
2018-12-25T00:31:54.475Z,99.99
2018-12-25T00:32:54.364Z,99.99
2018-12-25T00:33:54.348Z,99.99
2018-12-25T00:34:54.127Z,99.99
2018-12-25T00:35:53.915Z,99.99
2018-12-25T00:36:53.773Z,99.99
2018-12-25T00:37:53.669Z,99.99
2018-12-25T00:38:53.612Z,99.99
2018-12-25T00:39:53.456Z,99.99
2018-12-25T00:40:53.305Z,99.99
2018-12-25T00:41:53.094Z,99.99
2018-12-25T00:42:53.011Z,99.99
2018-12-25T00:43:53.995Z,99.99
2018-12-25T00:44:52.673Z,99.99
2018-12-25T00:45:52.585Z,99.99
2018-12-25T00:46:52.406Z,99.99
2018-12-25T00:47:52.292Z,99.99
2018-12-25T00:48:52.194Z,99.99
2018-12-25T00:49:52.103Z,99.99
2018-12-25T00:50:51.881Z,99.99
2018-12-25T00:51:51.753Z,99.99
2018-12-25T00:52:51.618Z,99.99
2018-12-25T00:53:51.507Z,99.99
2018-12-25T00:54:51.312Z,99.99
2018-12-25T00:55:51.166Z,99.99
2018-12-25T00:56:51.022Z,99.99
2018-12-25T00:57:50.944Z,99.99
2018-12-25T00:58:50.799Z,99.99
2018-12-25T00:59:50.664Z,99.99
2018-12-25T01:00:50.536Z,99.99
2018-12-25T01:01:50.374Z,99.99
2018-12-25T01:02:50.220Z,99.99
2018-12-25T01:03:50.130Z,99.99
2018-12-25T01:04:49.930Z,99.99
2018-12-25T01:05:49.823Z,99.99
2018-12-25T01:06:49.669Z,99.99
2018-12-25T01:07:49.506Z,99.99
2018-12-25T01:08:49.370Z,99.99
2018-12-25T01:09:49.264Z,99.99
2018-12-25T01:10:49.165Z,99.99
2018-12-25T01:11:48.956Z,99.99
2018-12-25T01:12:48.929Z,99.99
2018-12-25T01:13:48.703Z,99.99
2018-12-25T01:14:48.592Z,99.99
2018-12-25T01:15:48.412Z,99.99
2018-12-25T01:16:48.289Z,99.99
2018-12-25T01:17:48.130Z,99.99
2018-12-25T01:18:47.991Z,99.99
2018-12-25T01:19:47.931Z,99.99
2018-12-25T01:20:47.742Z,99.99
2018-12-25T01:21:47.644Z,99.99
2018-12-25T01:22:47.495Z,99.99
2018-12-25T01:23:47.330Z,99.99
2018-12-25T01:24:47.435Z,99.99
2018-12-25T01:25:47.077Z,99.99
2018-12-25T01:26:46.959Z,99.99
2018-12-25T01:27:46.792Z,99.99
2018-12-25T01:28:46.642Z,99.99
2018-12-25T01:29:46.581Z,99.99
2018-12-25T01:30:46.379Z,99.99
2018-12-25T01:31:46.207Z,99.99
2018-12-25T01:32:46.157Z,99.99
2018-12-25T01:33:45.953Z,99.99
2018-12-25T01:34:45.859Z,99.99
2018-12-25T01:35:45.828Z,99.99
2018-12-25T01:36:45.563Z,99.99
2018-12-25T01:37:45.431Z,99.99
2018-12-25T01:38:45.276Z,99.99
2018-12-25T01:39:45.123Z,99.99
2018-12-25T01:40:45.000Z,99.99
2018-12-25T01:41:44.859Z,99.99
2018-12-25T01:42:44.682Z,99.99
2018-12-25T01:43:44.545Z,99.99
2018-12-25T01:44:44.411Z,99.99
2018-12-25T01:45:44.271Z,99.99
2018-12-25T01:46:44.205Z,99.99
2018-12-25T01:47:44.003Z,99.99
2018-12-25T01:48:43.930Z,99.99
2018-12-25T01:49:43.762Z,99.99
2018-12-25T01:50:43.579Z,99.99
2018-12-25T01:51:43.546Z,99.99
2018-12-25T01:52:43.331Z,99.99
2018-12-25T01:53:43.267Z,99.99
2018-12-25T01:54:43.057Z,99.99
2018-12-25T01:55:42.890Z,99.99
2018-12-25T01:56:42.751Z,99.99
2018-12-25T01:57:42.623Z,99.99
2018-12-25T01:58:42.524Z,99.99
2018-12-25T01:59:42.365Z,99.99
2018-12-25T02:00:42.212Z,99.99
2018-12-25T02:01:42.099Z,99.99
2018-12-25T02:02:41.979Z,99.99
2018-12-25T02:03:41.819Z,99.99
2018-12-25T02:04:41.771Z,99.99
2018-12-25T02:05:41.618Z,99.99
2018-12-25T02:06:41.438Z,99.99
2018-12-25T02:07:41.266Z,99.99
2018-12-25T02:08:41.178Z,99.99
2018-12-25T02:09:41.017Z,99.99
2018-12-25T02:10:40.877Z,99.99
2018-12-25T02:11:40.711Z,99.99
2018-12-25T02:12:40.595Z,99.99
2018-12-25T02:13:40.539Z,99.99
2018-12-25T02:14:40.330Z,99.99
2018-12-25T02:15:40.205Z,99.99
2018-12-25T02:16:40.089Z,99.99
2018-12-25T02:17:39.897Z,99.99
2018-12-25T02:18:39.753Z,99.99
2018-12-25T02:19:40.307Z,99.99
2018-12-25T02:20:39.531Z,99.99
2018-12-25T02:21:39.323Z,99.99
2018-12-25T02:22:39.240Z,99.99
2018-12-25T02:23:39.085Z,99.99
2018-12-25T02:24:38.906Z,99.99
2018-12-25T02:25:38.844Z,99.99
2018-12-25T02:26:38.671Z,99.99
2018-12-25T02:27:38.512Z,99.99
2018-12-25T02:28:38.339Z,99.99
2018-12-25T02:29:38.246Z,99.99
2018-12-25T02:30:38.109Z,99.99
2018-12-25T02:31:37.929Z,99.99
2018-12-25T02:32:37.828Z,99.99
2018-12-25T02:33:37.715Z,99.99
2018-12-25T02:34:37.554Z,99.99
2018-12-25T02:35:37.380Z,99.99
2018-12-25T02:36:37.274Z,99.99
2018-12-25T02:37:37.122Z,99.99
2018-12-25T02:38:36.964Z,99.99
2018-12-25T02:39:36.857Z,99.99
2018-12-25T02:40:36.823Z,99.99
2018-12-25T02:41:36.762Z,99.99
2018-12-25T02:42:36.415Z,99.99
2018-12-25T02:43:36.313Z,99.99
2018-12-25T02:44:36.208Z,99.99
2018-12-25T02:45:36.003Z,99.99
2018-12-25T02:46:35.951Z,99.99
2018-12-25T02:47:35.718Z,99.99
2018-12-25T02:48:35.622Z,99.99
2018-12-25T02:49:35.444Z,99.99
2018-12-25T02:50:35.349Z,99.99
2018-12-25T02:51:35.294Z,99.99
2018-12-25T02:52:35.048Z,99.99
2018-12-25T02:53:34.923Z,99.99
2018-12-25T02:54:34.795Z,99.99
2018-12-25T02:55:34.672Z,99.99
2018-12-25T02:56:34.684Z,99.99
2018-12-25T02:57:34.391Z,99.99
2018-12-25T02:58:34.216Z,99.99
2018-12-25T02:59:34.081Z,99.99
2018-12-25T03:00:33.969Z,99.99
2018-12-25T03:01:33.830Z,99.99
2018-12-25T03:02:33.718Z,99.99
2018-12-25T03:03:33.591Z,99.99
2018-12-25T03:04:33.389Z,99.99
2018-12-25T03:05:33.269Z,99.99
2018-12-25T03:06:33.116Z,99.99
2018-12-25T03:07:32.958Z,99.99
2018-12-25T03:08:32.925Z,99.99
2018-12-25T03:09:32.708Z,99.99
2018-12-25T03:10:32.592Z,99.99
2018-12-25T03:11:32.496Z,99.99
2018-12-25T03:12:32.266Z,99.99
2018-12-25T03:13:32.149Z,99.99
2018-12-25T03:14:32.135Z,99.99
2018-12-25T03:15:31.931Z,99.99
2018-12-25T03:16:31.814Z,99.99
2018-12-25T03:17:31.594Z,99.99
2018-12-25T03:18:31.482Z,99.99
2018-12-25T03:19:31.358Z,99.99
2018-12-25T03:20:31.421Z,99.99
2018-12-25T03:21:31.045Z,99.99
2018-12-25T03:22:30.939Z,99.99
2018-12-25T03:23:30.863Z,99.99
2018-12-25T03:24:30.606Z,99.99
2018-12-25T03:25:30.482Z,99.99
2018-12-25T03:26:30.426Z,99.99
2018-12-25T03:27:30.246Z,99.99
2018-12-25T03:28:30.054Z,99.99
2018-12-25T03:29:29.919Z,99.99
2018-12-25T03:30:29.790Z,99.99
2018-12-25T03:31:29.645Z,99.99
2018-12-25T03:32:29.502Z,99.99
2018-12-25T03:33:29.365Z,99.99
2018-12-25T03:34:29.230Z,99.99
2018-12-25T03:35:29.087Z,99.99
2018-12-25T03:36:28.947Z,99.99
2018-12-25T03:37:28.818Z,99.99
2018-12-25T03:38:28.675Z,99.99
2018-12-25T03:39:28.536Z,99.99
2018-12-25T03:40:28.398Z,99.99
2018-12-25T03:41:28.256Z,99.99
2018-12-25T03:42:28.121Z,99.99
2018-12-25T03:43:27.981Z,99.99
2018-12-25T03:44:27.842Z,99.99
2018-12-25T03:45:27.716Z,99.99
2018-12-25T03:46:27.567Z,99.99
2018-12-25T03:47:27.430Z,99.99
2018-12-25T03:48:27.290Z,99.99
2018-12-25T03:49:27.152Z,99.99
2018-12-25T03:50:27.017Z,99.99
2018-12-25T03:51:26.875Z,99.99
2018-12-25T03:52:26.738Z,99.99
2018-12-25T03:53:26.604Z,99.99
2018-12-25T03:54:26.464Z,99.99
2018-12-25T03:55:26.325Z,99.99
2018-12-25T03:56:26.185Z,99.99
2018-12-25T03:57:26.051Z,99.99
2018-12-25T03:58:25.911Z,99.99
2018-12-25T03:59:25.774Z,99.99
2018-12-25T04:00:25.637Z,99.99
2018-12-25T04:01:25.503Z,99.99
2018-12-25T04:02:25.358Z,99.99
2018-12-25T04:03:25.223Z,99.99
2018-12-25T04:04:25.079Z,99.99
2018-12-25T04:05:24.942Z,99.99
2018-12-25T04:06:24.804Z,99.99
2018-12-25T04:07:24.671Z,99.99
2018-12-25T04:08:24.527Z,99.99
2018-12-25T04:09:24.392Z,99.99
2018-12-25T04:10:24.254Z,99.99
2018-12-25T04:11:24.123Z,99.99
2018-12-25T04:12:23.977Z,99.99
2018-12-25T04:13:23.841Z,99.99
2018-12-25T04:14:23.701Z,99.99
2018-12-25T04:15:23.568Z,99.99
2018-12-25T04:16:23.422Z,99.99
2018-12-25T04:17:23.283Z,99.99
2018-12-25T04:18:23.147Z,99.99
2018-12-25T04:19:23.006Z,99.99
2018-12-25T04:20:22.871Z,99.99
2018-12-25T04:21:22.734Z,99.99
2018-12-25T04:22:22.594Z,99.99
2018-12-25T04:23:22.455Z,99.99
2018-12-25T04:24:22.318Z,99.99
2018-12-25T04:25:22.178Z,99.99
2018-12-25T04:26:22.042Z,99.99
2018-12-25T04:27:21.901Z,99.99
2018-12-25T04:28:21.764Z,99.99
2018-12-25T04:29:21.627Z,99.99
2018-12-25T04:30:21.489Z,99.99
2018-12-25T04:31:21.347Z,99.99
2018-12-25T04:32:21.211Z,99.99
2018-12-25T04:33:21.081Z,99.99
2018-12-25T04:34:20.933Z,99.99
2018-12-25T04:35:20.794Z,99.99
2018-12-25T04:36:20.657Z,99.99
2018-12-25T04:37:20.520Z,99.99
2018-12-25T04:38:20.383Z,99.99
2018-12-25T04:39:20.249Z,99.99
2018-12-25T04:40:20.102Z,99.99
2018-12-25T04:41:19.965Z,99.99
2018-12-25T04:42:19.825Z,99.99
2018-12-25T04:43:19.689Z,99.99
2018-12-25T04:44:19.553Z,99.99
2018-12-25T04:45:19.412Z,99.99
2018-12-25T04:46:19.271Z,99.99
2018-12-25T04:47:19.133Z,99.99
2018-12-25T04:48:19.001Z,99.99
2018-12-25T04:49:18.861Z,99.99
2018-12-25T04:50:18.719Z,99.99
2018-12-25T04:51:18.582Z,99.99
2018-12-25T04:52:18.442Z,99.99
2018-12-25T04:53:18.311Z,99.99
2018-12-25T04:54:18.168Z,99.99
2018-12-25T04:55:18.026Z,99.99
2018-12-25T04:56:17.889Z,99.99
2018-12-25T04:57:17.750Z,99.99
2018-12-25T04:58:17.611Z,99.99
2018-12-25T04:59:17.473Z,99.99
2018-12-25T05:00:17.336Z,99.99
2018-12-25T05:01:17.198Z,99.99
2018-12-25T05:02:17.058Z,99.99
2018-12-25T05:03:16.920Z,99.99
2018-12-25T05:04:16.782Z,99.99
2018-12-25T05:05:16.647Z,99.99
2018-12-25T05:06:16.507Z,99.99
2018-12-25T05:07:16.365Z,99.99
2018-12-25T05:08:16.354Z,99.99
2018-12-25T05:09:16.102Z,99.99
2018-12-25T05:10:15.954Z,99.99
2018-12-25T05:11:15.812Z,99.99
2018-12-25T05:12:15.677Z,99.99
2018-12-25T05:13:15.536Z,99.99
2018-12-25T05:14:15.403Z,99.99
2018-12-25T05:15:15.262Z,99.99
2018-12-25T05:16:15.123Z,99.99
2018-12-25T05:17:14.982Z,99.99
2018-12-25T05:18:14.846Z,99.99
2018-12-25T05:19:14.705Z,99.99
2018-12-25T05:20:14.571Z,99.99
2018-12-25T05:21:14.430Z,99.99
2018-12-25T05:22:14.293Z,99.99
2018-12-25T05:23:14.152Z,99.99
2018-12-25T05:24:14.014Z,99.99
2018-12-25T05:25:13.875Z,99.99
2018-12-25T05:26:13.739Z,99.99
2018-12-25T05:27:13.597Z,99.99
2018-12-25T05:28:13.460Z,99.99
2018-12-25T05:29:13.322Z,99.99
2018-12-25T05:30:13.182Z,99.99
2018-12-25T05:31:13.044Z,99.99
2018-12-25T05:32:12.904Z,99.99
2018-12-25T05:33:12.767Z,99.99
2018-12-25T05:34:12.631Z,99.99
2018-12-25T05:35:12.490Z,99.99
2018-12-25T05:36:12.353Z,99.99
2018-12-25T05:37:12.211Z,99.99
2018-12-25T05:38:12.075Z,99.99
2018-12-25T05:39:11.935Z,99.99
2018-12-25T05:40:11.817Z,99.99
2018-12-25T05:41:11.662Z,99.99
2018-12-25T05:42:11.519Z,99.99
2018-12-25T05:43:11.378Z,99.99
2018-12-25T05:44:11.242Z,99.99
2018-12-25T05:45:11.105Z,99.99
2018-12-25T05:46:10.967Z,99.99
2018-12-25T05:47:10.824Z,99.99
2018-12-25T05:48:10.687Z,99.99
2018-12-25T05:49:10.550Z,99.99
2018-12-25T05:50:10.411Z,99.99
2018-12-25T05:51:10.271Z,99.99
2018-12-25T05:52:10.138Z,99.99
2018-12-25T05:53:09.997Z,99.99
2018-12-25T05:54:09.858Z,99.99
2018-12-25T05:55:09.720Z,99.99
2018-12-25T05:56:09.580Z,99.99
2018-12-25T05:57:09.441Z,99.99
2018-12-25T05:58:09.304Z,99.99
2018-12-25T05:59:09.164Z,99.99
2018-12-25T06:00:09.027Z,99.99
2018-12-25T06:01:08.887Z,99.99
2018-12-25T06:02:08.758Z,99.99
2018-12-25T06:03:08.609Z,99.99
2018-12-25T06:04:08.475Z,99.99
2018-12-25T06:05:08.336Z,99.99
2018-12-25T06:06:08.194Z,99.99
2018-12-25T06:07:08.053Z,99.99
2018-12-25T06:08:07.919Z,99.99
2018-12-25T06:09:07.781Z,99.99
2018-12-25T06:10:07.641Z,99.99
2018-12-25T06:11:07.502Z,99.99
2018-12-25T06:12:07.368Z,99.99
2018-12-25T06:13:07.224Z,99.99
2018-12-25T06:14:07.085Z,99.99
2018-12-25T06:15:06.947Z,99.99
2018-12-25T06:16:06.807Z,99.99
2018-12-25T06:17:06.671Z,99.99
2018-12-25T06:18:06.530Z,99.99
2018-12-25T06:19:06.392Z,99.99
2018-12-25T06:20:06.255Z,99.99
2018-12-25T06:21:06.118Z,99.99
2018-12-25T06:22:05.980Z,99.99
2018-12-25T06:23:05.842Z,99.99
2018-12-25T06:24:05.700Z,99.99
2018-12-25T06:25:05.573Z,99.99
2018-12-25T06:26:05.425Z,99.99
2018-12-25T06:27:05.286Z,99.99
2018-12-25T06:28:05.148Z,99.99
2018-12-25T06:29:05.010Z,99.99
2018-12-25T06:30:04.870Z,99.99
2018-12-25T06:31:04.730Z,99.99
2018-12-25T06:32:04.592Z,99.99
2018-12-25T06:33:04.453Z,99.99
2018-12-25T06:34:04.317Z,99.99
2018-12-25T06:35:04.175Z,99.99
2018-12-25T06:36:04.039Z,99.99
2018-12-25T06:37:03.899Z,99.99
2018-12-25T06:38:03.765Z,99.99
2018-12-25T06:39:03.629Z,99.99
2018-12-25T06:40:03.483Z,99.99
2018-12-25T06:41:03.350Z,99.99
2018-12-25T06:42:03.211Z,99.99
2018-12-25T06:43:03.066Z,99.99
2018-12-25T06:44:02.935Z,99.99
2018-12-25T06:45:02.794Z,99.99
2018-12-25T06:46:02.653Z,99.99
2018-12-25T06:47:02.512Z,99.99
2018-12-25T06:48:02.374Z,99.99
2018-12-25T06:49:02.239Z,99.99
2018-12-25T06:50:02.106Z,99.99
2018-12-25T06:51:03.959Z,99.99
2018-12-25T06:52:01.823Z,99.99
2018-12-25T06:53:01.781Z,99.99
2018-12-25T06:54:01.545Z,99.99
2018-12-25T06:55:01.409Z,99.99
2018-12-25T06:56:01.268Z,99.99
2018-12-25T06:57:01.215Z,99.99
2018-12-25T06:58:00.994Z,99.99
2018-12-25T06:59:00.853Z,99.99
2018-12-25T07:00:00.713Z,99.99
2018-12-25T07:01:00.576Z,99.99
2018-12-25T07:02:00.437Z,99.99
2018-12-25T07:03:00.300Z,99.99
2018-12-25T07:04:00.161Z,99.99
2018-12-25T07:05:00.032Z,99.99
2018-12-25T07:05:59.883Z,99.99
2018-12-25T07:06:59.745Z,99.99
2018-12-25T07:07:59.606Z,99.99
2018-12-25T07:08:59.469Z,99.99
2018-12-25T07:09:59.331Z,99.99
2018-12-25T07:10:59.190Z,99.99
2018-12-25T07:11:59.053Z,99.99
2018-12-25T07:12:58.914Z,99.99
2018-12-25T07:13:58.779Z,99.99
2018-12-25T07:14:58.636Z,99.99
2018-12-25T07:15:58.498Z,99.99
2018-12-25T07:16:58.362Z,99.99
2018-12-25T07:17:58.224Z,99.99
2018-12-25T07:18:58.097Z,99.99
2018-12-25T07:19:57.943Z,99.99
2018-12-25T07:20:57.809Z,99.99
2018-12-25T07:21:57.668Z,99.99
2018-12-25T07:22:57.527Z,99.99
2018-12-25T07:23:57.390Z,99.99
2018-12-25T07:24:57.252Z,99.99
2018-12-25T07:25:57.121Z,99.99
2018-12-25T07:26:56.974Z,99.99
2018-12-25T07:27:56.835Z,99.99
2018-12-25T07:28:56.695Z,99.99
2018-12-25T07:29:56.559Z,99.99
2018-12-25T07:30:56.418Z,99.99
2018-12-25T07:31:56.283Z,99.99
2018-12-25T07:32:56.144Z,99.99
2018-12-25T07:33:56.005Z,99.99
2018-12-25T07:34:55.865Z,99.99
2018-12-25T07:35:55.727Z,99.99
2018-12-25T07:36:55.591Z,99.99
2018-12-25T07:37:55.452Z,99.99
2018-12-25T07:38:55.309Z,99.99
2018-12-25T07:39:55.173Z,99.99
2018-12-25T07:40:55.041Z,99.99
2018-12-25T07:41:54.896Z,99.99
2018-12-25T07:42:54.755Z,99.99
2018-12-25T07:43:54.697Z,99.99
2018-12-25T07:44:54.482Z,99.99
2018-12-25T07:45:54.341Z,99.99
2018-12-25T07:46:54.202Z,99.99
2018-12-25T07:47:54.064Z,99.99
2018-12-25T07:48:53.930Z,99.99
2018-12-25T07:49:53.792Z,99.99
2018-12-25T07:50:53.648Z,99.99
2018-12-25T07:51:53.509Z,99.99
2018-12-25T07:52:53.377Z,99.99
2018-12-25T07:53:53.232Z,99.99
2018-12-25T07:54:53.094Z,99.99
2018-12-25T07:55:52.956Z,99.99
2018-12-25T07:56:52.819Z,99.99
2018-12-25T07:57:52.679Z,99.99
2018-12-25T07:58:52.540Z,99.99
2018-12-25T07:59:52.403Z,99.99
2018-12-25T08:00:52.264Z,99.99
2018-12-25T08:01:52.135Z,99.99
2018-12-25T08:02:52.011Z,99.99
2018-12-25T08:03:51.849Z,99.99
2018-12-25T08:04:51.711Z,99.99
2018-12-25T08:05:53.468Z,99.99
2018-12-25T08:06:51.434Z,99.99
2018-12-25T08:07:51.293Z,99.99
2018-12-25T08:08:51.159Z,99.99
2018-12-25T08:09:51.019Z,99.99
2018-12-25T08:10:50.883Z,99.99
2018-12-25T08:11:50.744Z,99.99
2018-12-25T08:12:50.618Z,99.99
2018-12-25T08:13:50.466Z,99.99
2018-12-25T08:14:50.328Z,99.99
2018-12-25T08:15:50.189Z,99.99
2018-12-25T08:16:50.052Z,99.99
2018-12-25T08:17:49.913Z,99.99
2018-12-25T08:18:49.775Z,99.99
2018-12-25T08:19:49.640Z,99.99
2018-12-25T08:20:49.498Z,99.99
2018-12-25T08:21:49.364Z,99.99
2018-12-25T08:22:49.222Z,99.99
2018-12-25T08:23:49.084Z,99.99
2018-12-25T08:24:48.946Z,99.99
2018-12-25T08:25:48.810Z,99.99
2018-12-25T08:26:48.668Z,99.99
2018-12-25T08:27:48.533Z,99.99
2018-12-25T08:28:48.397Z,99.99
2018-12-25T08:29:48.260Z,99.99
2018-12-25T08:30:48.138Z,99.99
2018-12-25T08:31:47.999Z,99.99
2018-12-25T08:32:47.843Z,99.99
2018-12-25T08:33:47.707Z,99.99
2018-12-25T08:34:47.578Z,99.99
2018-12-25T08:35:47.428Z,99.99
2018-12-25T08:36:47.293Z,99.99
2018-12-25T08:37:47.151Z,99.99
2018-12-25T08:38:47.285Z,99.99
2018-12-25T08:39:46.878Z,99.99
2018-12-25T08:40:46.741Z,99.99
2018-12-25T08:41:46.610Z,99.99
2018-12-25T08:42:46.476Z,99.99
2018-12-25T08:43:46.327Z,99.99
2018-12-25T08:44:46.189Z,99.99
2018-12-25T08:45:46.050Z,99.99
2018-12-25T08:46:45.915Z,99.99
2018-12-25T08:47:45.774Z,99.99
2018-12-25T08:48:45.637Z,99.99
2018-12-25T08:49:45.499Z,99.99
2018-12-25T08:50:45.411Z,99.99
2018-12-25T08:51:45.276Z,99.99
2018-12-25T08:52:45.088Z,99.99
2018-12-25T08:53:44.963Z,99.99
2018-12-25T08:54:44.812Z,99.99
2018-12-25T08:55:44.675Z,99.99
2018-12-25T08:56:44.540Z,99.99
2018-12-25T08:57:44.414Z,99.99
2018-12-25T08:58:44.262Z,99.99
2018-12-25T08:59:44.149Z,99.99
2018-12-25T09:00:43.990Z,99.99
2018-12-25T09:01:43.869Z,99.99
2018-12-25T09:02:43.719Z,99.99
2018-12-25T09:03:43.575Z,99.99
2018-12-25T09:04:43.480Z,99.99
2018-12-25T09:05:43.303Z,99.99
2018-12-25T09:06:43.166Z,99.99
2018-12-25T09:07:43.329Z,99.99
2018-12-25T09:08:42.893Z,99.99
2018-12-25T09:09:42.774Z,99.99
2018-12-25T09:10:42.619Z,99.99
2018-12-25T09:11:42.482Z,99.99
2018-12-25T09:12:42.346Z,99.99
2018-12-25T09:13:42.207Z,99.99
2018-12-25T09:14:42.099Z,99.99
2018-12-25T09:15:41.936Z,99.99
2018-12-25T09:16:41.799Z,99.99
2018-12-25T09:17:41.737Z,99.99
2018-12-25T09:18:41.525Z,99.99
2018-12-25T09:19:41.761Z,99.99
2018-12-25T09:20:41.265Z,99.99
2018-12-25T09:21:46.197Z,99.99
2018-12-25T09:22:40.980Z,99.99
2018-12-25T09:23:41.115Z,99.99
2018-12-25T09:24:40.769Z,99.99
2018-12-25T09:25:40.567Z,99.99
2018-12-25T09:26:40.428Z,99.99
2018-12-25T09:27:40.295Z,99.99
2018-12-25T09:28:40.157Z,99.99
2018-12-25T09:29:40.019Z,99.99
2018-12-25T09:30:40.052Z,99.99
2018-12-25T09:31:39.746Z,99.99
2018-12-25T09:32:39.612Z,99.99
2018-12-25T09:33:39.544Z,99.99
2018-12-25T09:34:39.335Z,99.99
2018-12-25T09:35:39.201Z,99.99
2018-12-25T09:36:39.321Z,99.99
2018-12-25T09:37:39.594Z,99.99
2018-12-25T09:38:38.790Z,99.99
2018-12-25T09:39:38.651Z,99.99
2018-12-25T09:40:38.513Z,99.99
2018-12-25T09:41:38.377Z,99.99
2018-12-25T09:42:38.253Z,99.99
2018-12-25T09:43:38.109Z,99.99
2018-12-25T09:44:37.968Z,99.99
2018-12-25T09:45:37.832Z,99.99
2018-12-25T09:46:37.696Z,99.99
2018-12-25T09:47:37.597Z,99.99
2018-12-25T09:48:37.545Z,99.99
2018-12-25T09:49:37.305Z,99.99
2018-12-25T09:50:37.146Z,99.99
2018-12-25T09:51:37.054Z,99.99
2018-12-25T09:52:36.875Z,99.99
2018-12-25T09:53:36.740Z,99.99
2018-12-25T09:54:36.600Z,99.99
2018-12-25T09:55:36.506Z,99.99
2018-12-25T09:56:36.334Z,99.99
2018-12-25T09:57:36.197Z,99.99
2018-12-25T09:58:36.057Z,99.99
2018-12-25T09:59:35.922Z,99.99
2018-12-25T10:00:35.787Z,99.99
2018-12-25T10:01:35.664Z,99.99
2018-12-25T10:02:35.515Z,99.99
2018-12-25T10:03:35.379Z,99.99
2018-12-25T10:04:35.249Z,99.99
2018-12-25T10:05:35.328Z,99.99
2018-12-25T10:06:35.007Z,99.99
2018-12-25T10:07:34.858Z,99.99
2018-12-25T10:08:34.704Z,99.99
2018-12-25T10:09:34.569Z,99.99
2018-12-25T10:10:34.466Z,99.99
2018-12-25T10:11:34.298Z,99.99
2018-12-25T10:12:34.166Z,99.99
2018-12-25T10:13:34.031Z,99.99
2018-12-25T10:14:33.898Z,99.99
2018-12-25T10:15:33.767Z,99.99
2018-12-25T10:16:33.699Z,99.99
2018-12-25T10:17:33.496Z,99.99
2018-12-25T10:18:33.385Z,99.99
2018-12-25T10:19:33.224Z,99.99
2018-12-25T10:20:33.091Z,99.99
2018-12-25T10:21:32.958Z,99.99
2018-12-25T10:22:32.824Z,99.99
2018-12-25T10:23:32.691Z,99.99
2018-12-25T10:24:32.556Z,99.99
2018-12-25T10:25:32.432Z,99.99
2018-12-25T10:26:32.296Z,99.99
2018-12-25T10:27:32.157Z,99.99
2018-12-25T10:28:32.025Z,95.26
2018-12-25T10:29:31.894Z,94.79
2018-12-25T10:30:31.764Z,93.85
2018-12-25T10:31:31.629Z,94.74
2018-12-25T10:32:31.511Z,89.82
2018-12-25T10:33:31.369Z,88.02
2018-12-25T10:34:31.334Z,86.89
2018-12-25T10:35:31.103Z,85.38
2018-12-25T10:36:30.972Z,83.76
2018-12-25T10:37:30.840Z,82.34
2018-12-25T10:38:30.710Z,82.50
2018-12-25T10:39:30.577Z,83.34
2018-12-25T10:40:30.445Z,85.61
2018-12-25T10:41:30.320Z,86.32
2018-12-25T10:42:30.182Z,85.61
2018-12-25T10:43:30.067Z,86.66
2018-12-25T10:44:29.921Z,87.74
2018-12-25T10:45:29.789Z,89.82
2018-12-25T10:46:29.658Z,87.17
2018-12-25T10:47:29.659Z,85.28
2018-12-25T10:48:29.432Z,85.28
2018-12-25T10:49:29.267Z,85.05
2018-12-25T10:50:29.134Z,87.70
2018-12-25T10:51:29.007Z,88.87
2018-12-25T10:52:28.877Z,92.66
2018-12-25T10:53:28.742Z,92.47
2018-12-25T10:54:28.613Z,92.00
2018-12-25T10:55:28.481Z,87.55
2018-12-25T10:56:28.351Z,87.41
2018-12-25T10:57:28.249Z,87.88
2018-12-25T10:58:28.089Z,89.12
2018-12-25T10:59:27.958Z,86.61
2018-12-25T11:00:27.830Z,89.92
2018-12-25T11:01:27.696Z,96.64
2018-12-25T11:02:27.693Z,96.54
2018-12-25T11:03:28.551Z,95.03
2018-12-25T11:04:27.305Z,95.21
2018-12-25T11:05:27.366Z,99.47
2018-12-25T11:06:28.773Z,99.00
2018-12-25T11:07:27.013Z,97.30
2018-12-25T11:08:26.916Z,94.46
2018-12-25T11:09:26.676Z,96.45
2018-12-25T11:10:27.187Z,95.74
2018-12-25T11:11:26.386Z,96.50
2018-12-25T11:12:26.252Z,96.02
2018-12-25T11:13:26.121Z,93.66
2018-12-25T11:14:26.264Z,91.48
2018-12-25T11:15:25.856Z,93.85
2018-12-25T11:16:26.077Z,92.80
2018-12-25T11:17:25.678Z,91.58
2018-12-25T11:18:27.181Z,90.82
2018-12-25T11:19:25.332Z,90.34
2018-12-25T11:20:25.198Z,90.16
2018-12-25T11:21:25.156Z,90.91
2018-12-25T11:22:24.942Z,89.87
2018-12-25T11:23:24.805Z,90.58
2018-12-25T11:24:24.678Z,92.47
2018-12-25T11:25:24.545Z,93.99
2018-12-25T11:26:24.434Z,95.50
2018-12-25T11:27:24.302Z,94.93
2018-12-25T11:28:24.306Z,95.78
2018-12-25T11:29:26.694Z,94.60
2018-12-25T11:30:23.883Z,93.80
2018-12-25T11:31:23.756Z,97.77
2018-12-25T11:32:23.651Z,99.95
2018-12-25T11:33:24.385Z,99.57
2018-12-25T11:34:23.368Z,99.38
2018-12-25T11:35:23.455Z,99.99
2018-12-25T11:36:23.095Z,99.99
2018-12-25T11:37:22.961Z,99.99
2018-12-25T11:38:22.847Z,99.28
2018-12-25T11:39:23.718Z,99.99
2018-12-25T11:40:22.609Z,97.34
2018-12-25T11:41:22.436Z,95.83
2018-12-25T11:42:22.301Z,94.13
2018-12-25T11:43:22.171Z,96.69
2018-12-25T11:44:22.041Z,96.69
2018-12-25T11:45:21.907Z,96.59
2018-12-25T11:46:21.773Z,97.16
2018-12-25T11:47:21.643Z,96.59
2018-12-25T11:48:21.512Z,96.50
2018-12-25T11:49:21.382Z,95.45
2018-12-25T11:50:21.259Z,96.50
2018-12-25T11:51:21.119Z,97.16
2018-12-25T11:52:28.223Z,98.67
2018-12-25T11:53:20.861Z,98.77
2018-12-25T11:54:20.722Z,98.91
2018-12-25T11:55:20.590Z,97.72
2018-12-25T11:56:20.459Z,96.78
2018-12-25T11:57:20.328Z,97.34
2018-12-25T11:58:20.211Z,96.31
2018-12-25T11:59:20.068Z,94.89
2018-12-25T12:00:19.934Z,95.07
2018-12-25T12:01:19.802Z,95.74
2018-12-25T12:02:19.671Z,95.45
2018-12-25T12:03:19.609Z,94.32
2018-12-25T12:04:19.442Z,93.75
2018-12-25T12:05:19.276Z,93.09
2018-12-25T12:06:19.143Z,95.55
2018-12-25T12:07:19.012Z,97.25
2018-12-25T12:08:18.883Z,97.06
2018-12-25T12:09:18.838Z,95.26
2018-12-25T12:10:18.821Z,96.59
2018-12-25T12:11:18.585Z,95.97
2018-12-25T12:12:18.445Z,95.83
2018-12-25T12:13:18.251Z,95.83
2018-12-25T12:14:18.265Z,94.70
2018-12-25T12:15:17.963Z,95.36
2018-12-25T12:16:18.027Z,94.79
2018-12-25T12:17:17.785Z,95.36
2018-12-25T12:18:17.565Z,96.16
2018-12-25T12:19:17.432Z,96.64
2018-12-25T12:20:17.302Z,94.18
2018-12-25T12:21:18.694Z,92.57
2018-12-25T12:22:17.037Z,92.19
2018-12-25T12:23:16.908Z,92.52
2018-12-25T12:24:16.773Z,93.28
2018-12-25T12:25:16.689Z,94.65
2018-12-25T12:26:16.536Z,96.92
2018-12-25T12:27:18.360Z,98.90
2018-12-25T12:28:16.279Z,99.99
2018-12-25T12:29:16.123Z,99.99
2018-12-25T12:30:16.014Z,99.99
2018-12-25T12:31:15.893Z,99.99
2018-12-25T12:32:15.753Z,99.99
2018-12-25T12:33:15.687Z,99.99
2018-12-25T12:34:15.457Z,99.99
2018-12-25T12:35:15.339Z,99.99
2018-12-25T12:36:16.695Z,99.99
2018-12-25T12:37:15.095Z,99.99
2018-12-25T12:38:14.937Z,99.99
2018-12-25T12:39:14.833Z,99.99
2018-12-25T12:40:14.701Z,99.99
2018-12-25T12:41:14.579Z,99.99
2018-12-25T12:42:14.407Z,99.99
2018-12-25T12:43:14.303Z,99.99
2018-12-25T12:44:14.138Z,99.99
2018-12-25T12:45:14.061Z,99.99
2018-12-25T12:46:13.916Z,99.99
2018-12-25T12:47:13.784Z,99.99
2018-12-25T12:48:13.648Z,99.99
2018-12-25T12:49:13.493Z,99.24
2018-12-25T12:50:13.365Z,98.86
2018-12-25T12:51:13.238Z,99.99